sensor_id;sensor_type;location;lat;lon;timestamp;P1;durP1;ratioP1;P2;durP2;ratioP2
26488;SDS011;14169;43.684;10.484;2022-12-20T00:01:11;17.90;;;16.23;;
26488;SDS011;14169;43.684;10.484;2022-12-20T00:03:38;21.13;;;16.88;;
26488;SDS011;14169;43.684;10.484;2022-12-20T00:06:04;18.15;;;16.35;;
26488;SDS011;14169;43.684;10.484;2022-12-20T00:08:29;18.77;;;17.08;;
26488;SDS011;14169;43.684;10.484;2022-12-20T00:10:55;20.27;;;17.95;;
26488;SDS011;14169;43.684;10.484;2022-12-20T00:13:20;18.83;;;16.92;;
26488;SDS011;14169;43.684;10.484;2022-12-20T00:15:46;19.23;;;16.33;;
26488;SDS011;14169;43.684;10.484;2022-12-20T00:18:11;23.48;;;17.60;;
26488;SDS011;14169;43.684;10.484;2022-12-20T00:20:37;17.90;;;16.05;;
26488;SDS011;14169;43.684;10.484;2022-12-20T00:23:02;18.25;;;16.42;;
26488;SDS011;14169;43.684;10.484;2022-12-20T00:25:28;20.45;;;16.98;;
26488;SDS011;14169;43.684;10.484;2022-12-20T00:27:53;18.98;;;16.15;;
26488;SDS011;14169;43.684;10.484;2022-12-20T00:30:19;19.05;;;16.27;;
26488;SDS011;14169;43.684;10.484;2022-12-20T00:32:44;20.63;;;16.23;;
26488;SDS011;14169;43.684;10.484;2022-12-20T00:35:11;19.70;;;16.27;;
26488;SDS011;14169;43.684;10.484;2022-12-20T00:37:37;16.85;;;15.32;;
26488;SDS011;14169;43.684;10.484;2022-12-20T00:40:03;17.00;;;15.60;;
26488;SDS011;14169;43.684;10.484;2022-12-20T00:42:30;21.27;;;17.35;;
26488;SDS011;14169;43.684;10.484;2022-12-20T00:44:55;17.23;;;15.50;;
26488;SDS011;14169;43.684;10.484;2022-12-20T00:47:21;17.73;;;16.10;;
26488;SDS011;14169;43.684;10.484;2022-12-20T00:49:46;18.67;;;16.98;;
26488;SDS011;14169;43.684;10.484;2022-12-20T00:52:11;17.92;;;16.33;;
26488;SDS011;14169;43.684;10.484;2022-12-20T00:54:37;17.20;;;15.70;;
26488;SDS011;14169;43.684;10.484;2022-12-20T00:57:02;17.73;;;16.00;;
26488;SDS011;14169;43.684;10.484;2022-12-20T00:59:28;18.38;;;16.40;;
26488;SDS011;14169;43.684;10.484;2022-12-20T01:01:53;16.52;;;15.25;;
26488;SDS011;14169;43.684;10.484;2022-12-20T01:04:19;17.52;;;14.88;;
26488;SDS011;14169;43.684;10.484;2022-12-20T01:06:44;17.50;;;15.77;;
26488;SDS011;14169;43.684;10.484;2022-12-20T01:09:10;17.58;;;15.80;;
26488;SDS011;14169;43.684;10.484;2022-12-20T01:11:35;17.13;;;15.35;;
26488;SDS011;14169;43.684;10.484;2022-12-20T01:14:06;16.48;;;15.02;;
26488;SDS011;14169;43.684;10.484;2022-12-20T01:16:38;21.02;;;15.82;;
26488;SDS011;14169;43.684;10.484;2022-12-20T01:19:06;16.38;;;14.98;;
26488;SDS011;14169;43.684;10.484;2022-12-20T01:21:34;16.52;;;15.00;;
26488;SDS011;14169;43.684;10.484;2022-12-20T01:23:59;17.50;;;15.95;;
26488;SDS011;14169;43.684;10.484;2022-12-20T01:26:26;17.58;;;15.80;;
26488;SDS011;14169;43.684;10.484;2022-12-20T01:28:54;18.45;;;16.65;;
26488;SDS011;14169;43.684;10.484;2022-12-20T01:31:21;17.73;;;16.08;;
26488;SDS011;14169;43.684;10.484;2022-12-20T01:33:47;17.13;;;15.45;;
26488;SDS011;14169;43.684;10.484;2022-12-20T01:36:15;17.83;;;16.33;;
26488;SDS011;14169;43.684;10.484;2022-12-20T01:38:42;19.50;;;16.58;;
26488;SDS011;14169;43.684;10.484;2022-12-20T01:41:08;17.73;;;15.95;;
26488;SDS011;14169;43.684;10.484;2022-12-20T01:43:45;17.80;;;16.10;;
26488;SDS011;14169;43.684;10.484;2022-12-20T01:46:14;17.63;;;16.02;;
26488;SDS011;14169;43.684;10.484;2022-12-20T01:48:40;17.63;;;16.00;;
26488;SDS011;14169;43.684;10.484;2022-12-20T01:51:08;19.05;;;15.70;;
26488;SDS011;14169;43.684;10.484;2022-12-20T01:53:34;17.65;;;16.02;;
26488;SDS011;14169;43.684;10.484;2022-12-20T01:56:00;17.58;;;15.88;;
26488;SDS011;14169;43.684;10.484;2022-12-20T01:58:29;17.98;;;16.30;;
26488;SDS011;14169;43.684;10.484;2022-12-20T02:00:56;17.08;;;15.18;;
26488;SDS011;14169;43.684;10.484;2022-12-20T02:03:22;18.13;;;16.40;;
26488;SDS011;14169;43.684;10.484;2022-12-20T02:05:47;19.58;;;17.52;;
26488;SDS011;14169;43.684;10.484;2022-12-20T02:08:13;19.17;;;17.17;;
26488;SDS011;14169;43.684;10.484;2022-12-20T02:16:10;18.20;;;16.50;;
26488;SDS011;14169;43.684;10.484;2022-12-20T02:18:43;18.25;;;16.58;;
26488;SDS011;14169;43.684;10.484;2022-12-20T02:32:24;16.98;;;15.40;;
26488;SDS011;14169;43.684;10.484;2022-12-20T02:34:53;18.08;;;16.13;;
26488;SDS011;14169;43.684;10.484;2022-12-20T02:37:19;17.23;;;15.70;;
26488;SDS011;14169;43.684;10.484;2022-12-20T02:39:44;18.17;;;16.38;;
26488;SDS011;14169;43.684;10.484;2022-12-20T02:42:12;19.77;;;16.30;;
26488;SDS011;14169;43.684;10.484;2022-12-20T02:44:41;29.08;;;16.17;;
26488;SDS011;14169;43.684;10.484;2022-12-20T02:47:35;16.85;;;15.18;;
26488;SDS011;14169;43.684;10.484;2022-12-20T02:50:07;16.73;;;15.23;;
26488;SDS011;14169;43.684;10.484;2022-12-20T02:52:34;17.08;;;15.48;;
26488;SDS011;14169;43.684;10.484;2022-12-20T02:55:00;18.85;;;16.42;;
26488;SDS011;14169;43.684;10.484;2022-12-20T02:57:31;19.27;;;15.40;;
26488;SDS011;14169;43.684;10.484;2022-12-20T03:02:34;16.70;;;15.02;;
26488;SDS011;14169;43.684;10.484;2022-12-20T03:05:20;17.38;;;15.00;;
26488;SDS011;14169;43.684;10.484;2022-12-20T03:07:48;17.92;;;16.13;;
26488;SDS011;14169;43.684;10.484;2022-12-20T03:10:14;17.10;;;15.35;;
26488;SDS011;14169;43.684;10.484;2022-12-20T03:12:41;17.23;;;15.52;;
26488;SDS011;14169;43.684;10.484;2022-12-20T03:15:06;16.08;;;14.73;;
26488;SDS011;14169;43.684;10.484;2022-12-20T03:17:33;16.98;;;15.48;;
26488;SDS011;14169;43.684;10.484;2022-12-20T03:19:59;16.88;;;15.38;;
26488;SDS011;14169;43.684;10.484;2022-12-20T03:22:24;20.13;;;15.43;;
26488;SDS011;14169;43.684;10.484;2022-12-20T03:24:50;17.88;;;16.08;;
26488;SDS011;14169;43.684;10.484;2022-12-20T03:27:15;19.83;;;16.83;;
26488;SDS011;14169;43.684;10.484;2022-12-20T03:29:41;17.63;;;15.68;;
26488;SDS011;14169;43.684;10.484;2022-12-20T03:32:06;18.65;;;16.88;;
26488;SDS011;14169;43.684;10.484;2022-12-20T03:34:32;19.45;;;16.73;;
26488;SDS011;14169;43.684;10.484;2022-12-20T03:36:57;24.10;;;17.35;;
26488;SDS011;14169;43.684;10.484;2022-12-20T03:39:23;19.52;;;17.48;;
26488;SDS011;14169;43.684;10.484;2022-12-20T03:41:48;18.98;;;17.27;;
26488;SDS011;14169;43.684;10.484;2022-12-20T03:44:13;20.38;;;18.33;;
26488;SDS011;14169;43.684;10.484;2022-12-20T03:46:39;30.02;;;18.60;;
26488;SDS011;14169;43.684;10.484;2022-12-20T03:49:04;19.77;;;17.95;;
26488;SDS011;14169;43.684;10.484;2022-12-20T03:51:30;17.88;;;16.25;;
26488;SDS011;14169;43.684;10.484;2022-12-20T03:53:55;18.65;;;16.73;;
26488;SDS011;14169;43.684;10.484;2022-12-20T03:56:21;19.23;;;17.10;;
26488;SDS011;14169;43.684;10.484;2022-12-20T03:58:46;19.60;;;17.77;;
26488;SDS011;14169;43.684;10.484;2022-12-20T04:01:16;18.58;;;16.85;;
26488;SDS011;14169;43.684;10.484;2022-12-20T04:03:45;19.55;;;17.63;;
26488;SDS011;14169;43.684;10.484;2022-12-20T04:06:11;20.98;;;16.65;;
26488;SDS011;14169;43.684;10.484;2022-12-20T04:08:36;17.70;;;15.80;;
26488;SDS011;14169;43.684;10.484;2022-12-20T04:11:01;18.83;;;16.45;;
26488;SDS011;14169;43.684;10.484;2022-12-20T04:13:44;18.70;;;16.92;;
26488;SDS011;14169;43.684;10.484;2022-12-20T04:16:13;17.10;;;15.48;;
26488;SDS011;14169;43.684;10.484;2022-12-20T04:18:41;18.85;;;17.00;;
26488;SDS011;14169;43.684;10.484;2022-12-20T04:21:06;17.55;;;15.70;;
26488;SDS011;14169;43.684;10.484;2022-12-20T04:23:33;18.65;;;15.82;;
26488;SDS011;14169;43.684;10.484;2022-12-20T04:25:59;17.98;;;16.10;;
26488;SDS011;14169;43.684;10.484;2022-12-20T04:28:26;18.05;;;16.42;;
26488;SDS011;14169;43.684;10.484;2022-12-20T04:30:52;18.55;;;16.70;;
26488;SDS011;14169;43.684;10.484;2022-12-20T04:33:17;17.42;;;15.73;;
26488;SDS011;14169;43.684;10.484;2022-12-20T04:35:43;19.60;;;15.63;;
26488;SDS011;14169;43.684;10.484;2022-12-20T04:38:08;19.63;;;16.40;;
26488;SDS011;14169;43.684;10.484;2022-12-20T04:40:33;16.23;;;14.77;;
26488;SDS011;14169;43.684;10.484;2022-12-20T04:42:59;17.10;;;15.35;;
26488;SDS011;14169;43.684;10.484;2022-12-20T04:45:24;18.95;;;16.95;;
26488;SDS011;14169;43.684;10.484;2022-12-20T04:47:50;18.45;;;15.55;;
26488;SDS011;14169;43.684;10.484;2022-12-20T04:50:15;18.42;;;16.50;;
26488;SDS011;14169;43.684;10.484;2022-12-20T04:52:41;16.50;;;14.90;;
26488;SDS011;14169;43.684;10.484;2022-12-20T04:55:24;16.65;;;14.93;;
26488;SDS011;14169;43.684;10.484;2022-12-20T04:57:50;17.45;;;15.68;;
26488;SDS011;14169;43.684;10.484;2022-12-20T05:00:15;19.60;;;17.52;;
26488;SDS011;14169;43.684;10.484;2022-12-20T05:02:41;18.13;;;16.27;;
26488;SDS011;14169;43.684;10.484;2022-12-20T05:05:06;18.15;;;16.35;;
26488;SDS011;14169;43.684;10.484;2022-12-20T05:07:32;17.58;;;15.80;;
26488;SDS011;14169;43.684;10.484;2022-12-20T05:09:58;17.52;;;15.68;;
26488;SDS011;14169;43.684;10.484;2022-12-20T05:12:23;16.40;;;14.77;;
26488;SDS011;14169;43.684;10.484;2022-12-20T05:14:49;15.45;;;14.15;;
26488;SDS011;14169;43.684;10.484;2022-12-20T05:17:14;17.35;;;15.75;;
26488;SDS011;14169;43.684;10.484;2022-12-20T05:19:40;16.17;;;14.68;;
26488;SDS011;14169;43.684;10.484;2022-12-20T05:22:05;17.38;;;15.75;;
26488;SDS011;14169;43.684;10.484;2022-12-20T05:24:49;16.02;;;14.18;;
26488;SDS011;14169;43.684;10.484;2022-12-20T05:27:33;16.90;;;14.80;;
26488;SDS011;14169;43.684;10.484;2022-12-20T05:29:58;17.23;;;15.02;;
26488;SDS011;14169;43.684;10.484;2022-12-20T05:32:24;15.60;;;13.93;;
26488;SDS011;14169;43.684;10.484;2022-12-20T05:34:49;17.70;;;15.90;;
26488;SDS011;14169;43.684;10.484;2022-12-20T05:37:14;26.30;;;14.85;;
26488;SDS011;14169;43.684;10.484;2022-12-20T05:39:40;19.05;;;15.15;;
26488;SDS011;14169;43.684;10.484;2022-12-20T05:42:05;14.98;;;13.57;;
26488;SDS011;14169;43.684;10.484;2022-12-20T05:44:31;23.63;;;15.43;;
26488;SDS011;14169;43.684;10.484;2022-12-20T05:46:56;15.98;;;14.60;;
26488;SDS011;14169;43.684;10.484;2022-12-20T05:49:21;14.90;;;13.05;;
26488;SDS011;14169;43.684;10.484;2022-12-20T05:51:47;16.65;;;13.65;;
26488;SDS011;14169;43.684;10.484;2022-12-20T05:54:12;13.82;;;12.30;;
26488;SDS011;14169;43.684;10.484;2022-12-20T05:56:38;12.85;;;11.60;;
26488;SDS011;14169;43.684;10.484;2022-12-20T05:59:03;13.07;;;11.93;;
26488;SDS011;14169;43.684;10.484;2022-12-20T06:01:28;14.60;;;12.40;;
26488;SDS011;14169;43.684;10.484;2022-12-20T06:03:54;13.90;;;12.57;;
26488;SDS011;14169;43.684;10.484;2022-12-20T06:06:20;13.40;;;12.18;;
26488;SDS011;14169;43.684;10.484;2022-12-20T06:08:46;14.05;;;12.65;;
26488;SDS011;14169;43.684;10.484;2022-12-20T06:11:12;12.95;;;11.80;;
26488;SDS011;14169;43.684;10.484;2022-12-20T06:13:37;18.10;;;13.27;;
26488;SDS011;14169;43.684;10.484;2022-12-20T06:16:03;13.75;;;12.55;;
26488;SDS011;14169;43.684;10.484;2022-12-20T06:18:28;16.17;;;14.02;;
26488;SDS011;14169;43.684;10.484;2022-12-20T06:20:54;13.43;;;12.35;;
26488;SDS011;14169;43.684;10.484;2022-12-20T06:23:19;14.95;;;13.40;;
26488;SDS011;14169;43.684;10.484;2022-12-20T06:25:45;16.38;;;14.48;;
26488;SDS011;14169;43.684;10.484;2022-12-20T06:28:11;13.63;;;12.43;;
26488;SDS011;14169;43.684;10.484;2022-12-20T06:30:36;14.98;;;12.05;;
26488;SDS011;14169;43.684;10.484;2022-12-20T06:33:02;13.40;;;12.20;;
26488;SDS011;14169;43.684;10.484;2022-12-20T06:35:28;13.70;;;12.00;;
26488;SDS011;14169;43.684;10.484;2022-12-20T06:37:54;13.60;;;12.00;;
26488;SDS011;14169;43.684;10.484;2022-12-20T06:40:19;13.55;;;12.23;;
26488;SDS011;14169;43.684;10.484;2022-12-20T06:42:45;14.63;;;11.80;;
26488;SDS011;14169;43.684;10.484;2022-12-20T06:45:10;15.55;;;12.20;;
26488;SDS011;14169;43.684;10.484;2022-12-20T06:47:36;13.05;;;11.95;;
26488;SDS011;14169;43.684;10.484;2022-12-20T06:50:02;13.77;;;12.35;;
26488;SDS011;14169;43.684;10.484;2022-12-20T06:52:28;15.85;;;11.40;;
26488;SDS011;14169;43.684;10.484;2022-12-20T06:54:54;15.13;;;11.35;;
26488;SDS011;14169;43.684;10.484;2022-12-20T06:57:19;13.77;;;12.07;;
26488;SDS011;14169;43.684;10.484;2022-12-20T06:59:45;15.50;;;12.55;;
26488;SDS011;14169;43.684;10.484;2022-12-20T07:02:10;14.18;;;12.77;;
26488;SDS011;14169;43.684;10.484;2022-12-20T07:04:36;13.27;;;11.95;;
26488;SDS011;14169;43.684;10.484;2022-12-20T07:07:02;13.23;;;11.68;;
26488;SDS011;14169;43.684;10.484;2022-12-20T07:09:28;13.48;;;11.40;;
26488;SDS011;14169;43.684;10.484;2022-12-20T07:11:54;13.70;;;12.48;;
26488;SDS011;14169;43.684;10.484;2022-12-20T07:14:19;19.27;;;12.98;;
26488;SDS011;14169;43.684;10.484;2022-12-20T07:16:45;13.57;;;12.20;;
26488;SDS011;14169;43.684;10.484;2022-12-20T07:19:11;12.00;;;10.88;;
26488;SDS011;14169;43.684;10.484;2022-12-20T07:21:37;12.27;;;11.07;;
26488;SDS011;14169;43.684;10.484;2022-12-20T07:24:03;11.02;;;10.10;;
26488;SDS011;14169;43.684;10.484;2022-12-20T07:26:28;13.25;;;10.23;;
26488;SDS011;14169;43.684;10.484;2022-12-20T07:28:54;11.27;;;10.20;;
26488;SDS011;14169;43.684;10.484;2022-12-20T07:31:19;12.48;;;10.25;;
26488;SDS011;14169;43.684;10.484;2022-12-20T07:33:45;10.27;;;9.35;;
26488;SDS011;14169;43.684;10.484;2022-12-20T07:36:11;14.48;;;10.05;;
26488;SDS011;14169;43.684;10.484;2022-12-20T07:38:37;10.80;;;9.77;;
26488;SDS011;14169;43.684;10.484;2022-12-20T07:41:06;12.18;;;9.73;;
26488;SDS011;14169;43.684;10.484;2022-12-20T07:43:36;10.98;;;10.02;;
26488;SDS011;14169;43.684;10.484;2022-12-20T07:46:02;24.65;;;15.48;;
26488;SDS011;14169;43.684;10.484;2022-12-20T07:48:29;19.48;;;13.90;;
26488;SDS011;14169;43.684;10.484;2022-12-20T07:50:55;13.77;;;11.35;;
26488;SDS011;14169;43.684;10.484;2022-12-20T07:53:25;12.10;;;10.95;;
26488;SDS011;14169;43.684;10.484;2022-12-20T07:55:53;13.50;;;11.57;;
26488;SDS011;14169;43.684;10.484;2022-12-20T07:58:19;12.02;;;11.05;;
26488;SDS011;14169;43.684;10.484;2022-12-20T08:00:45;18.10;;;11.45;;
26488;SDS011;14169;43.684;10.484;2022-12-20T08:05:39;12.10;;;11.10;;
26488;SDS011;14169;43.684;10.484;2022-12-20T08:08:07;13.85;;;12.40;;
26488;SDS011;14169;43.684;10.484;2022-12-20T08:10:33;12.93;;;11.50;;
26488;SDS011;14169;43.684;10.484;2022-12-20T08:13:00;13.68;;;12.27;;
26488;SDS011;14169;43.684;10.484;2022-12-20T08:15:26;16.65;;;11.98;;
26488;SDS011;14169;43.684;10.484;2022-12-20T08:17:53;17.85;;;11.27;;
26488;SDS011;14169;43.684;10.484;2022-12-20T08:20:18;11.88;;;10.60;;
26488;SDS011;14169;43.684;10.484;2022-12-20T08:22:44;15.57;;;12.40;;
26488;SDS011;14169;43.684;10.484;2022-12-20T08:25:09;12.00;;;10.82;;
26488;SDS011;14169;43.684;10.484;2022-12-20T08:27:36;10.63;;;9.52;;
26488;SDS011;14169;43.684;10.484;2022-12-20T08:30:01;9.90;;;9.10;;
26488;SDS011;14169;43.684;10.484;2022-12-20T08:32:26;11.35;;;7.93;;
26488;SDS011;14169;43.684;10.484;2022-12-20T08:34:53;8.25;;;7.45;;
26488;SDS011;14169;43.684;10.484;2022-12-20T08:37:19;7.53;;;6.93;;
26488;SDS011;14169;43.684;10.484;2022-12-20T08:39:44;11.82;;;7.90;;
26488;SDS011;14169;43.684;10.484;2022-12-20T08:42:10;7.43;;;6.72;;
26488;SDS011;14169;43.684;10.484;2022-12-20T08:44:35;9.00;;;7.85;;
26488;SDS011;14169;43.684;10.484;2022-12-20T08:47:01;7.38;;;6.68;;
26488;SDS011;14169;43.684;10.484;2022-12-20T08:49:26;8.38;;;7.63;;
26488;SDS011;14169;43.684;10.484;2022-12-20T08:51:52;8.52;;;6.63;;
26488;SDS011;14169;43.684;10.484;2022-12-20T08:54:17;7.88;;;7.07;;
26488;SDS011;14169;43.684;10.484;2022-12-20T08:56:43;8.23;;;6.88;;
26488;SDS011;14169;43.684;10.484;2022-12-20T08:59:08;7.93;;;7.15;;
26488;SDS011;14169;43.684;10.484;2022-12-20T09:01:34;7.53;;;6.30;;
26488;SDS011;14169;43.684;10.484;2022-12-20T09:03:59;9.35;;;6.22;;
26488;SDS011;14169;43.684;10.484;2022-12-20T09:06:24;6.53;;;5.93;;
26488;SDS011;14169;43.684;10.484;2022-12-20T09:08:50;6.95;;;6.35;;
26488;SDS011;14169;43.684;10.484;2022-12-20T09:11:17;8.98;;;6.57;;
26488;SDS011;14169;43.684;10.484;2022-12-20T09:13:45;7.68;;;6.22;;
26488;SDS011;14169;43.684;10.484;2022-12-20T09:16:13;7.70;;;7.00;;
26488;SDS011;14169;43.684;10.484;2022-12-20T09:18:39;7.40;;;6.70;;
26488;SDS011;14169;43.684;10.484;2022-12-20T09:21:06;8.55;;;7.65;;
26488;SDS011;14169;43.684;10.484;2022-12-20T09:23:33;8.90;;;7.22;;
26488;SDS011;14169;43.684;10.484;2022-12-20T09:26:10;7.95;;;7.15;;
26488;SDS011;14169;43.684;10.484;2022-12-20T09:28:37;6.90;;;6.28;;
26488;SDS011;14169;43.684;10.484;2022-12-20T09:31:04;7.85;;;6.45;;
26488;SDS011;14169;43.684;10.484;2022-12-20T09:33:32;7.13;;;6.28;;
26488;SDS011;14169;43.684;10.484;2022-12-20T09:35:59;7.72;;;6.40;;
26488;SDS011;14169;43.684;10.484;2022-12-20T09:38:25;5.90;;;5.30;;
26488;SDS011;14169;43.684;10.484;2022-12-20T09:40:54;7.25;;;5.00;;
26488;SDS011;14169;43.684;10.484;2022-12-20T09:43:22;6.88;;;5.10;;
26488;SDS011;14169;43.684;10.484;2022-12-20T09:45:52;5.22;;;4.55;;
26488;SDS011;14169;43.684;10.484;2022-12-20T09:48:37;6.68;;;5.53;;
26488;SDS011;14169;43.684;10.484;2022-12-20T09:59:18;6.03;;;5.32;;
26488;SDS011;14169;43.684;10.484;2022-12-20T10:01:45;6.57;;;5.10;;
26488;SDS011;14169;43.684;10.484;2022-12-20T10:04:33;5.43;;;4.93;;
26488;SDS011;14169;43.684;10.484;2022-12-20T10:25:49;7.75;;;4.85;;
26488;SDS011;14169;43.684;10.484;2022-12-20T10:28:16;6.30;;;5.32;;
26488;SDS011;14169;43.684;10.484;2022-12-20T10:30:50;6.00;;;5.28;;
26488;SDS011;14169;43.684;10.484;2022-12-20T10:33:18;7.03;;;5.28;;
26488;SDS011;14169;43.684;10.484;2022-12-20T10:35:45;5.53;;;5.05;;
26488;SDS011;14169;43.684;10.484;2022-12-20T10:38:12;6.03;;;5.43;;
26488;SDS011;14169;43.684;10.484;2022-12-20T10:40:43;6.13;;;5.53;;
26488;SDS011;14169;43.684;10.484;2022-12-20T10:43:15;7.25;;;5.53;;
26488;SDS011;14169;43.684;10.484;2022-12-20T10:45:44;6.50;;;5.22;;
26488;SDS011;14169;43.684;10.484;2022-12-20T10:48:31;7.15;;;5.30;;
26488;SDS011;14169;43.684;10.484;2022-12-20T10:51:17;7.22;;;5.32;;
26488;SDS011;14169;43.684;10.484;2022-12-20T10:56:25;5.60;;;5.10;;
26488;SDS011;14169;43.684;10.484;2022-12-20T10:59:00;5.80;;;5.22;;
26488;SDS011;14169;43.684;10.484;2022-12-20T11:01:46;13.57;;;4.70;;
26488;SDS011;14169;43.684;10.484;2022-12-20T11:04:25;6.68;;;4.43;;
26488;SDS011;14169;43.684;10.484;2022-12-20T11:06:51;4.65;;;4.25;;
26488;SDS011;14169;43.684;10.484;2022-12-20T11:11:58;5.35;;;3.90;;
26488;SDS011;14169;43.684;10.484;2022-12-20T11:14:24;4.38;;;3.97;;
26488;SDS011;14169;43.684;10.484;2022-12-20T11:16:50;6.25;;;3.75;;
26488;SDS011;14169;43.684;10.484;2022-12-20T11:30:08;2.63;;;0.93;;
26488;SDS011;14169;43.684;10.484;2022-12-20T11:35:49;2.58;;;1.52;;
26488;SDS011;14169;43.684;10.484;2022-12-20T11:42:18;4.03;;;1.80;;
26488;SDS011;14169;43.684;10.484;2022-12-20T11:52:49;1.73;;;1.00;;
26488;SDS011;14169;43.684;10.484;2022-12-20T11:55:23;2.33;;;0.90;;
26488;SDS011;14169;43.684;10.484;2022-12-20T12:00:25;1.17;;;0.73;;
26488;SDS011;14169;43.684;10.484;2022-12-20T12:06:00;1.55;;;0.90;;
26488;SDS011;14169;43.684;10.484;2022-12-20T12:08:22;1.92;;;1.00;;
26488;SDS011;14169;43.684;10.484;2022-12-20T12:11:20;1.83;;;0.80;;
26488;SDS011;14169;43.684;10.484;2022-12-20T12:13:49;3.65;;;0.90;;
26488;SDS011;14169;43.684;10.484;2022-12-20T12:18:41;0.98;;;0.60;;
26488;SDS011;14169;43.684;10.484;2022-12-20T12:26:26;1.97;;;0.97;;
26488;SDS011;14169;43.684;10.484;2022-12-20T12:28:55;1.40;;;0.75;;
26488;SDS011;14169;43.684;10.484;2022-12-20T12:31:28;1.50;;;0.63;;
26488;SDS011;14169;43.684;10.484;2022-12-20T12:39:25;4.57;;;0.90;;
26488;SDS011;14169;43.684;10.484;2022-12-20T12:42:04;1.38;;;0.65;;
26488;SDS011;14169;43.684;10.484;2022-12-20T12:47:20;1.98;;;1.20;;
26488;SDS011;14169;43.684;10.484;2022-12-20T12:49:52;2.03;;;0.80;;
26488;SDS011;14169;43.684;10.484;2022-12-20T12:52:54;2.22;;;0.60;;
26488;SDS011;14169;43.684;10.484;2022-12-20T12:55:34;4.30;;;0.85;;
26488;SDS011;14169;43.684;10.484;2022-12-20T13:03:34;3.22;;;0.80;;
26488;SDS011;14169;43.684;10.484;2022-12-20T13:11:31;1.75;;;0.80;;
26488;SDS011;14169;43.684;10.484;2022-12-20T13:16:47;2.80;;;0.80;;
26488;SDS011;14169;43.684;10.484;2022-12-20T13:19:17;3.20;;;1.35;;
26488;SDS011;14169;43.684;10.484;2022-12-20T13:27:39;5.45;;;0.80;;
26488;SDS011;14169;43.684;10.484;2022-12-20T13:43:04;3.10;;;1.05;;
26488;SDS011;14169;43.684;10.484;2022-12-20T13:45:36;1.20;;;0.60;;
26488;SDS011;14169;43.684;10.484;2022-12-20T13:48:03;1.63;;;0.80;;
26488;SDS011;14169;43.684;10.484;2022-12-20T13:50:32;1.58;;;0.80;;
26488;SDS011;14169;43.684;10.484;2022-12-20T13:53:03;1.60;;;0.60;;
26488;SDS011;14169;43.684;10.484;2022-12-20T13:58:05;3.78;;;0.90;;
26488;SDS011;14169;43.684;10.484;2022-12-20T14:00:36;2.13;;;0.80;;
26488;SDS011;14169;43.684;10.484;2022-12-20T14:03:02;1.35;;;0.60;;
26488;SDS011;14169;43.684;10.484;2022-12-20T14:05:32;2.83;;;0.60;;
26488;SDS011;14169;43.684;10.484;2022-12-20T14:08:08;1.95;;;0.70;;
26488;SDS011;14169;43.684;10.484;2022-12-20T14:10:41;2.35;;;0.80;;
26488;SDS011;14169;43.684;10.484;2022-12-20T14:13:20;3.70;;;1.05;;
26488;SDS011;14169;43.684;10.484;2022-12-20T14:15:47;1.10;;;0.70;;
26488;SDS011;14169;43.684;10.484;2022-12-20T14:18:17;1.25;;;0.70;;
26488;SDS011;14169;43.684;10.484;2022-12-20T14:20:44;2.28;;;0.73;;
26488;SDS011;14169;43.684;10.484;2022-12-20T14:23:19;1.67;;;0.93;;
26488;SDS011;14169;43.684;10.484;2022-12-20T14:31:19;4.13;;;1.27;;
26488;SDS011;14169;43.684;10.484;2022-12-20T14:36:26;2.65;;;1.05;;
26488;SDS011;14169;43.684;10.484;2022-12-20T14:38:54;3.60;;;1.10;;
26488;SDS011;14169;43.684;10.484;2022-12-20T14:43:59;3.53;;;1.10;;
26488;SDS011;14169;43.684;10.484;2022-12-20T14:46:38;2.13;;;0.90;;
26488;SDS011;14169;43.684;10.484;2022-12-20T14:49:38;2.47;;;1.10;;
26488;SDS011;14169;43.684;10.484;2022-12-20T14:52:16;2.42;;;1.10;;
26488;SDS011;14169;43.684;10.484;2022-12-20T14:54:47;5.00;;;1.60;;
26488;SDS011;14169;43.684;10.484;2022-12-20T14:57:28;3.67;;;1.50;;
26488;SDS011;14169;43.684;10.484;2022-12-20T14:59:59;2.70;;;1.13;;
26488;SDS011;14169;43.684;10.484;2022-12-20T15:13:33;2.97;;;1.35;;
26488;SDS011;14169;43.684;10.484;2022-12-20T15:16:01;2.22;;;1.50;;
26488;SDS011;14169;43.684;10.484;2022-12-20T15:18:38;6.25;;;1.88;;
26488;SDS011;14169;43.684;10.484;2022-12-20T15:23:39;3.33;;;1.70;;
26488;SDS011;14169;43.684;10.484;2022-12-20T15:26:15;1.50;;;1.30;;
26488;SDS011;14169;43.684;10.484;2022-12-20T15:28:42;3.33;;;1.48;;
26488;SDS011;14169;43.684;10.484;2022-12-20T15:31:11;4.30;;;2.05;;
26488;SDS011;14169;43.684;10.484;2022-12-20T15:33:39;1.80;;;1.47;;
26488;SDS011;14169;43.684;10.484;2022-12-20T15:36:06;3.22;;;1.63;;
26488;SDS011;14169;43.684;10.484;2022-12-20T15:38:43;8.60;;;1.98;;
26488;SDS011;14169;43.684;10.484;2022-12-20T15:41:21;3.45;;;1.60;;
26488;SDS011;14169;43.684;10.484;2022-12-20T15:43:48;3.72;;;2.22;;
26488;SDS011;14169;43.684;10.484;2022-12-20T15:46:16;2.08;;;1.60;;
26488;SDS011;14169;43.684;10.484;2022-12-20T15:48:41;6.50;;;2.53;;
26488;SDS011;14169;43.684;10.484;2022-12-20T15:51:12;3.97;;;2.13;;
26488;SDS011;14169;43.684;10.484;2022-12-20T15:53:42;2.85;;;2.55;;
26488;SDS011;14169;43.684;10.484;2022-12-20T15:56:10;2.97;;;2.40;;
26488;SDS011;14169;43.684;10.484;2022-12-20T15:58:41;4.80;;;2.95;;
26488;SDS011;14169;43.684;10.484;2022-12-20T16:01:08;4.15;;;2.47;;
26488;SDS011;14169;43.684;10.484;2022-12-20T16:03:37;3.83;;;3.40;;
26488;SDS011;14169;43.684;10.484;2022-12-20T16:06:03;6.45;;;4.97;;
26488;SDS011;14169;43.684;10.484;2022-12-20T16:08:28;7.10;;;4.45;;
26488;SDS011;14169;43.684;10.484;2022-12-20T16:10:54;4.78;;;3.60;;
26488;SDS011;14169;43.684;10.484;2022-12-20T16:13:21;7.93;;;4.25;;
26488;SDS011;14169;43.684;10.484;2022-12-20T16:15:48;4.60;;;3.92;;
26488;SDS011;14169;43.684;10.484;2022-12-20T16:18:14;5.35;;;3.92;;
26488;SDS011;14169;43.684;10.484;2022-12-20T16:20:40;4.70;;;3.95;;
26488;SDS011;14169;43.684;10.484;2022-12-20T16:23:11;6.00;;;5.32;;
26488;SDS011;14169;43.684;10.484;2022-12-20T16:25:42;11.13;;;5.30;;
26488;SDS011;14169;43.684;10.484;2022-12-20T16:28:08;6.95;;;6.25;;
26488;SDS011;14169;43.684;10.484;2022-12-20T16:30:34;6.55;;;5.25;;
26488;SDS011;14169;43.684;10.484;2022-12-20T16:32:59;6.32;;;4.88;;
26488;SDS011;14169;43.684;10.484;2022-12-20T16:35:26;9.52;;;5.93;;
26488;SDS011;14169;43.684;10.484;2022-12-20T16:37:54;10.63;;;7.55;;
26488;SDS011;14169;43.684;10.484;2022-12-20T16:40:21;15.25;;;13.75;;
26488;SDS011;14169;43.684;10.484;2022-12-20T16:42:48;30.58;;;21.85;;
26488;SDS011;14169;43.684;10.484;2022-12-20T16:45:18;23.75;;;15.60;;
26488;SDS011;14169;43.684;10.484;2022-12-20T16:47:46;29.67;;;18.52;;
26488;SDS011;14169;43.684;10.484;2022-12-20T16:50:12;22.48;;;18.67;;
26488;SDS011;14169;43.684;10.484;2022-12-20T16:52:38;23.20;;;17.92;;
26488;SDS011;14169;43.684;10.484;2022-12-20T16:55:03;24.35;;;19.55;;
26488;SDS011;14169;43.684;10.484;2022-12-20T16:57:29;23.65;;;20.88;;
26488;SDS011;14169;43.684;10.484;2022-12-20T16:59:54;26.00;;;18.25;;
26488;SDS011;14169;43.684;10.484;2022-12-20T17:04:47;27.70;;;16.17;;
26488;SDS011;14169;43.684;10.484;2022-12-20T17:07:12;37.90;;;17.73;;